Avon, CO (81620)

2:19 PM MDT en Septiembre 30, 2016 (GMT -0600)
Whiskey Hill, EagleVail | | Change Station

Alt 7959 ft 39.61 °N, 106.48 °W | Updated 4 minutes ago

Scattered Clouds
Nubes dispersas
59.8 ° F
Sensación térmica 59.8 ° F
N
1.0
Viento Variable Viento desde Oeste
Gusts 5.0 mph

Hoy
Alta -- | Baja -- ° F
--% Posibilidad de precipitaciones
Ayer
Alta -- | Baja -- ° F
Precip. -- pul
Presión 30.32 pul
Visibilidad 10.0 Millas
Nubes Nubes dispersas 6000 ft
Punto de rocío 42 ° F
Humedad 52%
Precipitaciones 0.00 pul
Espesor de la nieve No disponible.
7:01 AM 6:49 PM
Creciente menguante, 0% visible
METAR KEGE 301950Z 28005KT 10SM SCT060 19/07 A3032
Presión 30.32 pul
Visibilidad 10.0 Millas
Nubes Nubes dispersas 6000 ft
Punto de rocío 42 ° F
Humedad 52%
Precipitaciones 0.00 pul
Espesor de la nieve No disponible.
7:01 AM 6:49 PM
Creciente menguante, 0% visible
METAR KEGE 301950Z 28005KT 10SM SCT060 19/07 A3032

10-Day Weather Forecast

Almanac

Astronomía

Sep. 30, 2016 Salida Puesta
Hora real
Crepúsculo civil
Crepúsculo náutico
Crepúsculo astronómico
Luna
Horas de luz
Horas de luz
Tomorrow will be .
, % of the Moon is Illuminated

Extremos de hoy

Máximos del estado Bajos del estado

Community

WunderPhotos

Upload Photos

1,942,762 ¡fotos cargadas!

WunderBlog® & News

Nearby

Calidad del aire

  Calidad del aire Índice AQ Contaminante
Not available.

Grosos de nieve

Estación Profundido Altura

Actividad de terremotos

Ciudad Distance Mag. Tiempo y dato
Magnitud mínima muestra es 2,5.

Temperaturas de aguas costeras

Lugar Temperatura

Stations

Estaciones meteorológicas cercanas

Ubicación de la estación Temp. Vientos helados Punto de rocío Humedad Viento Precip. Alt Actualizado Tipo
                   

Watches & Warnings

There are currently no watches in effect.